createdAt,value
2023-05-06T00:00:08.472Z,56.51
2023-05-06T00:02:43.508Z,56.91
2023-05-06T00:05:10.888Z,57.20
2023-05-06T00:07:38.187Z,57.20
2023-05-06T00:10:06.737Z,57.41
2023-05-06T00:12:33.661Z,58.09
2023-05-06T00:15:00.738Z,57.51
2023-05-06T00:17:27.679Z,58.04
2023-05-06T00:19:56.247Z,57.73
2023-05-06T00:22:23.221Z,58.36
2023-05-06T00:24:50.213Z,58.51
2023-05-06T00:27:17.906Z,59.05
2023-05-06T00:29:44.815Z,59.92
2023-05-06T00:32:11.918Z,60.13
2023-05-06T00:34:38.811Z,60.64
2023-05-06T00:37:05.746Z,60.09
2023-05-06T00:39:33.618Z,60.85
2023-05-06T00:42:04.456Z,62.89
2023-05-06T00:44:34.329Z,61.41
2023-05-06T00:47:01.902Z,61.38
2023-05-06T00:49:30.586Z,62.37
2023-05-06T00:51:58.768Z,62.23
2023-05-06T00:54:26.984Z,62.24
2023-05-06T00:56:54.819Z,64.82
2023-05-06T00:59:24.939Z,63.42
2023-05-06T01:01:54.119Z,63.17
2023-05-06T01:04:24.195Z,63.89
2023-05-06T01:07:22.839Z,64.07
2023-05-06T01:09:57.550Z,65.62
2023-05-06T01:12:31.039Z,64.76
2023-05-06T01:15:01.417Z,65.09
2023-05-06T01:17:31.912Z,65.42
2023-05-06T01:20:01.818Z,65.83
2023-05-06T01:22:31.332Z,67.27
2023-05-06T01:24:58.311Z,66.78
2023-05-06T01:27:25.223Z,66.84
2023-05-06T01:29:52.294Z,66.91
2023-05-06T01:32:43.213Z,67.98
2023-05-06T01:35:51.947Z,67.26
2023-05-06T01:38:21.989Z,67.20
2023-05-06T01:40:54.332Z,67.43
2023-05-06T01:43:24.262Z,67.27
2023-05-06T01:45:54.431Z,66.92
2023-05-06T01:48:28.217Z,67.25
2023-05-06T01:50:55.783Z,67.77
2023-05-06T01:53:22.679Z,68.06
2023-05-06T01:55:49.653Z,68.90
2023-05-06T01:58:17.073Z,68.76
2023-05-06T02:00:43.974Z,69.43
2023-05-06T02:03:12.181Z,69.43
2023-05-06T02:05:39.319Z,69.94
2023-05-06T02:08:06.760Z,69.74
2023-05-06T02:10:33.830Z,69.95
2023-05-06T02:13:04.876Z,69.27
2023-05-06T02:15:31.997Z,69.57
2023-05-06T02:18:00.239Z,70.56
2023-05-06T02:20:27.288Z,69.84
2023-05-06T02:23:14.218Z,70.91
2023-05-06T02:25:41.130Z,70.06
2023-05-06T02:28:08.034Z,71.56
2023-05-06T02:30:35.517Z,70.93
2023-05-06T02:33:02.871Z,70.93
2023-05-06T02:35:29.849Z,70.96
2023-05-06T02:37:56.760Z,71.77
2023-05-06T02:40:23.682Z,71.56
2023-05-06T02:42:50.624Z,71.10
2023-05-06T02:45:17.865Z,71.66
2023-05-06T02:47:44.955Z,72.41
2023-05-06T02:50:11.834Z,70.69
2023-05-06T02:52:39.052Z,71.64
2023-05-06T02:55:07.088Z,71.40
2023-05-06T02:57:34.298Z,71.61
2023-05-06T03:00:06.796Z,71.66
2023-05-06T03:02:33.892Z,71.38
2023-05-06T03:05:01.149Z,71.31
2023-05-06T03:07:31.708Z,71.63
2023-05-06T03:09:58.734Z,71.47
2023-05-06T03:12:25.663Z,71.22
2023-05-06T03:14:52.610Z,70.39
2023-05-06T03:17:19.544Z,69.81
2023-05-06T03:19:46.461Z,69.54
2023-05-06T03:22:15.670Z,69.01
2023-05-06T03:24:44.773Z,68.81
2023-05-06T03:27:11.777Z,68.18
2023-05-06T03:29:39.249Z,67.73
2023-05-06T03:32:07.865Z,67.21
2023-05-06T03:34:40.919Z,67.10
2023-05-06T03:37:10.181Z,66.44
2023-05-06T03:39:38.120Z,66.29
2023-05-06T03:42:07.144Z,65.50
2023-05-06T03:44:37.170Z,64.95
2023-05-06T03:47:04.167Z,64.51
2023-05-06T03:49:33.124Z,63.29
2023-05-06T03:52:00.545Z,62.88
2023-05-06T03:54:27.546Z,62.77
2023-05-06T03:56:54.633Z,62.21
2023-05-06T03:59:21.783Z,62.42
2023-05-06T04:01:49.472Z,62.59
2023-05-06T04:04:17.074Z,62.37
2023-05-06T04:06:45.079Z,62.14
2023-05-06T04:09:11.988Z,61.93
2023-05-06T04:11:40.164Z,61.63
2023-05-06T04:14:09.842Z,61.15
2023-05-06T04:16:37.586Z,60.44
2023-05-06T04:19:06.645Z,60.02
2023-05-06T04:21:35.417Z,59.87
2023-05-06T04:24:07.035Z,59.44
2023-05-06T04:26:37.865Z,58.99
2023-05-06T04:29:05.339Z,58.61
2023-05-06T04:31:35.212Z,58.16
2023-05-06T04:34:04.992Z,58.65
2023-05-06T04:36:32.673Z,58.36
2023-05-06T04:39:18.244Z,57.35
2023-05-06T04:41:46.232Z,57.36
2023-05-06T04:44:17.655Z,56.96
2023-05-06T04:46:46.590Z,56.95
2023-05-06T04:49:14.883Z,57.43
2023-05-06T04:51:41.865Z,57.08
2023-05-06T04:54:09.103Z,56.35
2023-05-06T04:56:36.492Z,55.56
2023-05-06T04:59:05.436Z,55.78
2023-05-06T05:01:32.640Z,55.27
2023-05-06T05:04:00.064Z,55.05
2023-05-06T05:06:32.288Z,53.71
2023-05-06T05:09:02.446Z,52.75
2023-05-06T05:11:29.990Z,52.57
2023-05-06T05:14:00.938Z,51.76
2023-05-06T05:16:31.860Z,50.80
2023-05-06T05:19:01.565Z,50.19
2023-05-06T05:21:31.836Z,50.04
2023-05-06T05:23:59.387Z,49.68
2023-05-06T05:26:28.750Z,49.40
2023-05-06T05:28:59.616Z,49.55
2023-05-06T05:31:28.070Z,48.89
2023-05-06T05:33:55.662Z,48.76
2023-05-06T05:36:23.539Z,48.32
2023-05-06T05:38:53.928Z,47.62
2023-05-06T05:41:22.005Z,48.46
2023-05-06T05:43:49.264Z,47.76
2023-05-06T05:46:27.904Z,47.35
2023-05-06T05:49:02.054Z,47.68
2023-05-06T05:51:29.631Z,47.38
2023-05-06T05:54:00.775Z,47.79
2023-05-06T05:56:28.289Z,47.26
2023-05-06T05:58:55.235Z,45.92
2023-05-06T06:01:22.202Z,44.24
2023-05-06T06:03:49.736Z,39.34
2023-05-06T06:06:17.124Z,36.96
2023-05-06T06:08:47.558Z,37.88
2023-05-06T06:11:15.044Z,39.46
2023-05-06T06:13:43.169Z,40.28
2023-05-06T06:16:11.336Z,40.70
2023-05-06T06:18:38.531Z,40.64
2023-05-06T06:21:05.599Z,40.28
2023-05-06T06:23:32.816Z,40.56
2023-05-06T06:26:01.644Z,38.61
2023-05-06T06:28:28.776Z,38.13
2023-05-06T06:30:55.857Z,40.17
2023-05-06T06:33:22.766Z,36.17
2023-05-06T06:35:49.698Z,35.20
2023-05-06T06:38:16.666Z,35.65
2023-05-06T06:40:43.726Z,35.87
2023-05-06T06:43:10.742Z,35.82
2023-05-06T06:45:56.471Z,37.05
2023-05-06T06:48:23.699Z,32.60
2023-05-06T06:50:50.692Z,31.53
2023-05-06T06:53:17.672Z,33.31
2023-05-06T06:55:45.562Z,33.59
2023-05-06T06:58:12.619Z,34.42
2023-05-06T07:00:39.466Z,33.44
2023-05-06T07:03:06.536Z,33.12
2023-05-06T07:05:33.610Z,32.04
2023-05-06T07:08:00.629Z,29.69
2023-05-06T07:10:27.536Z,29.83
2023-05-06T07:12:58.402Z,29.97
2023-05-06T07:15:25.918Z,28.31
2023-05-06T07:17:52.926Z,27.74
2023-05-06T07:20:19.951Z,28.83
2023-05-06T07:22:46.979Z,26.43
2023-05-06T07:25:14.086Z,26.60
2023-05-06T07:27:41.056Z,27.94
2023-05-06T07:30:08.593Z,25.77
2023-05-06T07:32:36.069Z,27.81
2023-05-06T07:35:03.544Z,27.11
2023-05-06T07:37:30.543Z,26.55
2023-05-06T07:39:58.309Z,26.93
2023-05-06T07:42:25.509Z,25.94
2023-05-06T07:44:52.379Z,27.61
2023-05-06T07:47:32.620Z,27.26
2023-05-06T07:50:00.346Z,28.82
2023-05-06T07:52:27.851Z,28.40
2023-05-06T07:54:54.892Z,28.39
2023-05-06T07:57:21.896Z,28.42
2023-05-06T07:59:50.238Z,28.13
2023-05-06T08:02:17.988Z,29.15
2023-05-06T08:04:46.094Z,29.74
2023-05-06T08:07:13.392Z,30.31
2023-05-06T08:09:40.244Z,30.55
2023-05-06T08:12:10.184Z,27.80
2023-05-06T08:14:37.144Z,28.70
2023-05-06T08:17:04.184Z,27.89
2023-05-06T08:19:31.223Z,26.34
2023-05-06T08:21:58.266Z,23.69
2023-05-06T08:24:25.145Z,25.96
2023-05-06T08:26:52.071Z,25.15
2023-05-06T08:29:19.406Z,23.06
2023-05-06T08:31:47.314Z,22.56
2023-05-06T08:34:14.664Z,23.53
2023-05-06T08:36:41.552Z,20.98
2023-05-06T08:39:08.531Z,20.76
2023-05-06T08:41:39.930Z,18.87
2023-05-06T08:44:08.611Z,18.62
2023-05-06T08:46:35.807Z,17.66
2023-05-06T08:49:03.183Z,17.70
2023-05-06T08:51:32.175Z,19.03
2023-05-06T08:54:04.897Z,20.55
2023-05-06T08:56:33.785Z,21.94
2023-05-06T08:59:01.546Z,21.35
2023-05-06T09:01:29.269Z,19.83
2023-05-06T09:03:58.178Z,17.71
2023-05-06T09:06:25.548Z,18.77
2023-05-06T09:08:52.657Z,20.34
2023-05-06T09:11:23.708Z,21.31
2023-05-06T09:13:51.750Z,23.25
2023-05-06T09:16:31.613Z,24.19
2023-05-06T09:19:00.076Z,24.62
2023-05-06T09:21:38.042Z,25.77
2023-05-06T09:24:06.556Z,24.69
2023-05-06T09:26:36.316Z,23.70
2023-05-06T09:29:04.472Z,21.57
2023-05-06T09:31:31.822Z,19.72
2023-05-06T09:34:01.116Z,18.02
2023-05-06T09:36:28.742Z,19.42
2023-05-06T09:38:57.145Z,17.87
2023-05-06T09:41:25.749Z,17.39
2023-05-06T09:43:54.302Z,18.41
2023-05-06T09:46:23.082Z,19.24
2023-05-06T09:48:52.009Z,19.46
2023-05-06T09:51:19.425Z,19.55
2023-05-06T09:53:47.193Z,18.12
2023-05-06T09:56:15.193Z,18.62
2023-05-06T09:58:42.653Z,19.58
2023-05-06T10:01:10.084Z,20.95
2023-05-06T10:03:38.646Z,21.40
2023-05-06T10:06:06.324Z,21.54
2023-05-06T10:08:35.144Z,19.77
2023-05-06T10:11:02.282Z,18.97
2023-05-06T10:13:30.173Z,19.56
2023-05-06T10:16:00.866Z,20.11
2023-05-06T10:18:30.637Z,20.52
2023-05-06T10:21:00.228Z,21.91
2023-05-06T10:23:57.278Z,22.38
2023-05-06T10:26:26.671Z,23.13
2023-05-06T10:28:53.847Z,23.03
2023-05-06T10:31:21.388Z,21.40
2023-05-06T10:33:51.377Z,21.16
2023-05-06T10:36:26.151Z,21.15
2023-05-06T10:38:56.706Z,23.32
2023-05-06T10:41:27.878Z,22.99
2023-05-06T10:43:57.157Z,24.17
2023-05-06T10:46:26.494Z,24.06
2023-05-06T10:49:08.687Z,25.34
2023-05-06T10:51:41.325Z,24.22
2023-05-06T10:54:10.104Z,24.97
2023-05-06T10:57:00.039Z,23.77
2023-05-06T10:59:31.583Z,24.88
2023-05-06T11:02:04.812Z,24.53
2023-05-06T11:04:31.961Z,24.53
2023-05-06T11:07:14.794Z,24.96
2023-05-06T11:10:08.396Z,24.29
2023-05-06T11:12:52.905Z,23.90
2023-05-06T11:15:43.878Z,21.34
2023-05-06T11:18:33.669Z,20.75
2023-05-06T11:21:03.349Z,20.48
2023-05-06T11:23:42.924Z,20.20
2023-05-06T11:26:11.299Z,21.18
2023-05-06T11:28:48.673Z,21.49
2023-05-06T11:31:16.766Z,22.17
2023-05-06T11:33:52.628Z,22.18
2023-05-06T11:36:21.365Z,23.27
2023-05-06T11:38:53.132Z,23.97
2023-05-06T11:41:22.245Z,24.45
2023-05-06T11:43:51.077Z,25.31
2023-05-06T11:46:23.290Z,24.83
2023-05-06T11:48:50.684Z,25.49
2023-05-06T11:51:24.138Z,24.58
2023-05-06T11:54:08.800Z,25.34
2023-05-06T11:56:51.628Z,24.02
2023-05-06T11:59:30.198Z,25.32
2023-05-06T12:01:58.824Z,26.69
2023-05-06T12:04:25.869Z,25.64
2023-05-06T12:06:55.523Z,26.03
2023-05-06T12:09:23.537Z,26.02
2023-05-06T12:11:51.388Z,25.68
2023-05-06T12:14:18.837Z,26.10
2023-05-06T12:16:46.289Z,25.88
2023-05-06T12:19:16.526Z,25.70
2023-05-06T12:21:43.969Z,25.56
2023-05-06T12:24:11.048Z,25.85
2023-05-06T12:26:49.508Z,26.07
2023-05-06T12:29:17.522Z,25.26
2023-05-06T12:31:47.388Z,25.73
2023-05-06T12:34:16.409Z,26.16
2023-05-06T12:36:46.097Z,26.60
2023-05-06T12:39:14.115Z,27.40
2023-05-06T12:41:45.962Z,27.13
2023-05-06T12:44:38.149Z,27.02
2023-05-06T12:47:07.580Z,27.38
2023-05-06T12:49:51.213Z,27.26
2023-05-06T12:52:23.581Z,28.09
2023-05-06T12:54:51.981Z,28.14
2023-05-06T12:57:19.319Z,27.76
2023-05-06T12:59:50.245Z,27.92
2023-05-06T13:02:17.488Z,27.31
2023-05-06T13:04:46.821Z,27.52
2023-05-06T13:07:13.983Z,27.88
2023-05-06T13:09:41.022Z,27.82
2023-05-06T13:12:07.955Z,28.43
2023-05-06T13:14:35.570Z,28.54
2023-05-06T13:17:06.763Z,28.07
2023-05-06T13:19:34.248Z,28.15
2023-05-06T13:22:01.729Z,30.00
2023-05-06T13:24:29.615Z,28.01
2023-05-06T13:26:57.600Z,28.40
2023-05-06T13:29:24.930Z,27.90
2023-05-06T13:31:52.335Z,28.35
2023-05-06T13:34:19.376Z,27.97
2023-05-06T13:36:49.136Z,27.79
2023-05-06T13:39:16.299Z,28.36
2023-05-06T13:41:45.988Z,27.25
2023-05-06T13:44:13.040Z,28.03
2023-05-06T13:46:40.062Z,27.67
2023-05-06T13:49:06.997Z,28.43
2023-05-06T13:51:34.713Z,27.45
2023-05-06T13:54:02.690Z,26.38
2023-05-06T13:56:29.636Z,27.19
2023-05-06T13:58:56.611Z,26.31
2023-05-06T14:01:24.618Z,27.32
2023-05-06T14:03:51.657Z,27.27
2023-05-06T14:06:19.031Z,27.29
2023-05-06T14:08:46.266Z,28.63
2023-05-06T14:11:13.484Z,30.24
2023-05-06T14:13:40.779Z,31.56
2023-05-06T14:16:08.059Z,31.49
2023-05-06T14:18:34.962Z,31.51
2023-05-06T14:21:01.957Z,31.91
2023-05-06T14:23:29.142Z,30.85
2023-05-06T14:25:56.146Z,31.30
2023-05-06T14:28:23.771Z,31.15
2023-05-06T14:30:51.489Z,31.46
2023-05-06T14:33:18.347Z,30.90
2023-05-06T14:35:46.292Z,31.23
2023-05-06T14:38:13.359Z,31.95
2023-05-06T14:40:40.417Z,31.56
2023-05-06T14:43:07.810Z,31.17
2023-05-06T14:45:35.065Z,30.87
2023-05-06T14:48:02.538Z,31.37
2023-05-06T14:50:30.455Z,32.19
2023-05-06T14:52:57.382Z,32.39
2023-05-06T14:55:24.413Z,32.35
2023-05-06T14:57:51.567Z,31.81
2023-05-06T15:00:18.917Z,32.48
2023-05-06T15:02:46.462Z,33.33
2023-05-06T15:05:13.823Z,32.57
2023-05-06T15:07:41.225Z,32.48
2023-05-06T15:10:08.457Z,33.24
2023-05-06T15:12:36.479Z,33.45
2023-05-06T15:15:05.249Z,33.79
2023-05-06T15:17:33.776Z,33.93
2023-05-06T15:20:00.873Z,34.32
2023-05-06T15:22:27.884Z,33.88
2023-05-06T15:24:54.876Z,34.24
2023-05-06T15:27:21.818Z,33.74
2023-05-06T15:29:48.806Z,33.14
2023-05-06T15:32:15.865Z,33.27
2023-05-06T15:34:42.894Z,32.67
2023-05-06T15:37:10.667Z,32.83
2023-05-06T15:39:38.078Z,32.88
2023-05-06T15:42:05.555Z,32.61
2023-05-06T15:44:34.003Z,32.59
2023-05-06T15:47:01.298Z,33.34
2023-05-06T15:52:00.750Z,33.40
2023-05-06T15:54:29.052Z,33.39
2023-05-06T15:56:56.711Z,33.52
2023-05-06T15:59:24.086Z,34.08
2023-05-06T16:02:25.667Z,33.89
2023-05-06T16:04:38.280Z,34.04
2023-05-06T16:07:05.765Z,34.76
2023-05-06T16:09:32.610Z,34.16
2023-05-06T16:11:59.954Z,34.36
2023-05-06T16:14:26.828Z,34.58
2023-05-06T16:16:53.697Z,34.98
2023-05-06T16:19:20.621Z,34.89
2023-05-06T16:21:48.476Z,34.73
2023-05-06T16:24:16.054Z,34.79
2023-05-06T16:26:43.084Z,34.99
2023-05-06T16:29:10.328Z,34.85
2023-05-06T16:31:38.162Z,35.31
2023-05-06T16:34:05.458Z,35.34
2023-05-06T16:36:32.447Z,35.29
2023-05-06T16:38:59.311Z,35.73
2023-05-06T16:41:26.390Z,36.30
2023-05-06T16:43:53.293Z,36.89
2023-05-06T16:46:26.613Z,36.67
2023-05-06T16:48:56.959Z,36.57
2023-05-06T16:51:24.548Z,36.77
2023-05-06T16:53:55.560Z,37.25
2023-05-06T16:56:22.845Z,37.19
2023-05-06T16:58:49.835Z,37.54
2023-05-06T17:01:16.980Z,37.29
2023-05-06T17:03:43.916Z,36.98
2023-05-06T17:06:11.574Z,36.83
2023-05-06T17:08:38.597Z,37.04
2023-05-06T17:11:07.153Z,37.16
2023-05-06T17:13:34.767Z,36.83
2023-05-06T17:16:01.695Z,36.83
2023-05-06T17:18:28.653Z,36.50
2023-05-06T17:20:57.013Z,36.85
2023-05-06T17:23:24.687Z,37.34
2023-05-06T17:25:51.859Z,37.66
2023-05-06T17:28:19.138Z,38.15
2023-05-06T17:30:46.789Z,37.60
2023-05-06T17:33:13.717Z,37.79
2023-05-06T17:35:40.790Z,38.13
2023-05-06T17:38:08.007Z,38.07
2023-05-06T17:40:35.043Z,38.07
2023-05-06T17:43:02.106Z,38.41
2023-05-06T17:45:29.329Z,39.03
2023-05-06T17:47:56.721Z,39.04
2023-05-06T17:50:27.093Z,38.97
2023-05-06T17:52:54.665Z,39.58
2023-05-06T17:55:22.079Z,39.38
2023-05-06T17:57:49.526Z,39.31
2023-05-06T18:00:17.118Z,40.60
2023-05-06T18:02:44.973Z,41.39
2023-05-06T18:05:13.455Z,41.30
2023-05-06T18:07:41.072Z,41.36
2023-05-06T18:10:08.719Z,42.43
2023-05-06T18:12:35.944Z,42.67
2023-05-06T18:15:03.312Z,43.23
2023-05-06T18:17:31.299Z,42.99
2023-05-06T18:19:58.276Z,44.00
2023-05-06T18:22:25.637Z,43.48
2023-05-06T18:24:55.344Z,44.63
2023-05-06T18:27:23.137Z,44.52
2023-05-06T18:29:50.051Z,44.46
2023-05-06T18:32:17.691Z,44.67
2023-05-06T18:34:44.716Z,45.26
2023-05-06T18:37:11.666Z,45.62
2023-05-06T18:39:42.658Z,46.68
2023-05-06T18:42:09.698Z,46.16
2023-05-06T18:44:37.150Z,46.09
2023-05-06T18:47:04.054Z,46.59
2023-05-06T18:49:31.385Z,46.88
2023-05-06T18:51:58.404Z,47.19
2023-05-06T18:54:25.765Z,47.11
2023-05-06T18:56:52.719Z,47.91
2023-05-06T18:59:22.584Z,47.32
2023-05-06T19:01:49.536Z,48.18
2023-05-06T19:04:16.590Z,48.34
2023-05-06T19:06:43.794Z,48.16
2023-05-06T19:09:11.428Z,48.66
2023-05-06T19:11:38.890Z,48.73
2023-05-06T19:14:05.747Z,48.83
2023-05-06T19:16:32.749Z,49.57
2023-05-06T19:18:59.986Z,49.68
2023-05-06T19:21:28.041Z,49.81
2023-05-06T19:23:59.771Z,49.50
2023-05-06T19:26:35.582Z,50.10
2023-05-06T19:29:08.242Z,50.09
2023-05-06T19:31:38.705Z,49.93
2023-05-06T19:34:05.717Z,50.94
2023-05-06T19:36:32.679Z,50.08
2023-05-06T19:38:59.650Z,50.41
2023-05-06T19:41:26.851Z,50.99
2023-05-06T19:43:54.012Z,51.67
2023-05-06T19:46:20.940Z,52.01
2023-05-06T19:48:47.878Z,51.97
2023-05-06T19:51:14.857Z,51.95
2023-05-06T19:53:41.805Z,52.01
2023-05-06T19:56:13.373Z,53.37
2023-05-06T19:58:40.724Z,52.90
2023-05-06T20:01:10.041Z,52.76
2023-05-06T20:03:37.166Z,53.71
2023-05-06T20:06:04.336Z,53.17
2023-05-06T20:08:31.261Z,53.58
2023-05-06T20:10:58.363Z,53.84
2023-05-06T20:13:25.382Z,53.79
2023-05-06T20:15:54.444Z,54.60
2023-05-06T20:18:24.566Z,54.11
2023-05-06T20:20:51.662Z,54.37
2023-05-06T20:23:18.673Z,54.54
2023-05-06T20:25:45.635Z,54.65
2023-05-06T20:28:12.656Z,54.85
2023-05-06T20:30:39.638Z,54.70
2023-05-06T20:33:06.664Z,55.83
2023-05-06T20:35:38.350Z,55.48
2023-05-06T20:38:06.212Z,55.12
2023-05-06T20:40:35.752Z,55.95
2023-05-06T20:43:02.938Z,55.28
2023-05-06T20:45:32.481Z,55.33
2023-05-06T20:47:59.656Z,55.28
2023-05-06T20:50:28.643Z,55.50
2023-05-06T20:52:55.741Z,55.77
2023-05-06T20:55:26.044Z,56.71
2023-05-06T20:57:53.206Z,56.81
2023-05-06T21:00:20.641Z,56.82
2023-05-06T21:02:47.701Z,56.85
2023-05-06T21:05:14.889Z,57.07
2023-05-06T21:07:42.070Z,57.26
2023-05-06T21:10:10.028Z,57.29
2023-05-06T21:12:37.426Z,57.76
2023-05-06T21:15:04.826Z,58.60
2023-05-06T21:17:33.780Z,58.50
2023-05-06T21:20:00.918Z,58.63
2023-05-06T21:22:27.864Z,59.02
2023-05-06T21:25:00.012Z,59.42
2023-05-06T21:27:27.072Z,59.46
2023-05-06T21:29:54.070Z,59.73
2023-05-06T21:32:24.160Z,60.27
2023-05-06T21:34:51.914Z,60.34
2023-05-06T21:37:18.846Z,60.28
2023-05-06T21:39:45.823Z,60.22
2023-05-06T21:42:12.809Z,60.46
2023-05-06T21:44:39.765Z,60.58
2023-05-06T21:47:07.215Z,60.25
2023-05-06T21:49:38.803Z,60.33
2023-05-06T21:52:06.593Z,60.97
2023-05-06T21:54:33.686Z,61.43
2023-05-06T21:57:01.206Z,60.88
2023-05-06T21:59:28.238Z,61.20
2023-05-06T22:01:56.326Z,61.08
2023-05-06T22:04:23.518Z,61.15
2023-05-06T22:06:50.874Z,61.57
2023-05-06T22:09:19.899Z,61.70
2023-05-06T22:11:48.654Z,61.64
2023-05-06T22:14:16.186Z,62.12
2023-05-06T22:16:46.013Z,61.95
2023-05-06T22:19:17.740Z,62.57
2023-05-06T22:21:44.600Z,62.37
2023-05-06T22:24:12.196Z,62.36
2023-05-06T22:26:39.367Z,63.37
2023-05-06T22:29:06.330Z,63.14
2023-05-06T22:31:33.312Z,63.05
2023-05-06T22:34:04.654Z,62.60
2023-05-06T22:36:33.800Z,62.89
2023-05-06T22:39:01.873Z,63.36
2023-05-06T22:41:30.176Z,63.07
2023-05-06T22:43:59.823Z,63.09
2023-05-06T22:46:26.990Z,63.51
2023-05-06T22:48:53.958Z,63.71
2023-05-06T22:51:21.344Z,63.64
2023-05-06T22:53:48.366Z,63.91
2023-05-06T22:56:17.312Z,64.28
2023-05-06T22:58:44.218Z,64.56
2023-05-06T23:01:12.201Z,64.58
2023-05-06T23:03:59.874Z,64.56
2023-05-06T23:06:31.166Z,64.55
2023-05-06T23:08:58.224Z,64.96
2023-05-06T23:11:25.793Z,64.71
2023-05-06T23:13:52.690Z,64.46
2023-05-06T23:16:19.608Z,66.45
2023-05-06T23:18:46.440Z,65.17
2023-05-06T23:21:13.810Z,65.29
2023-05-06T23:23:41.141Z,65.69
2023-05-06T23:26:08.079Z,65.32
2023-05-06T23:28:34.968Z,65.54
2023-05-06T23:31:01.917Z,65.49
2023-05-06T23:33:29.052Z,66.09
2023-05-06T23:35:56.112Z,66.25
2023-05-06T23:38:23.237Z,65.88
2023-05-06T23:40:50.949Z,65.81
2023-05-06T23:43:17.887Z,66.96
2023-05-06T23:45:44.842Z,66.73
2023-05-06T23:48:11.788Z,66.19
2023-05-06T23:50:38.885Z,66.26
2023-05-06T23:53:05.828Z,66.72
2023-05-06T23:55:32.843Z,67.23
2023-05-06T23:57:59.825Z,67.30
